Munin Explorer — C4XX2 — position and weather

sailwx.info

Track history (hours):
 
Tides and Currents Weather Stations Pressure Air Temp Water Temp Dewpoint Dewpoint Depression Visibility Wind Speed Wind Dir Waves Ship Positions

Munin Explorer

Last reported at 2014-Jul-24 17:32 UTC. Time now 2014-Jul-24 17:43 UTC.
Position N 57°48' W 000°53'.

Length 60 m; draft 7.2 m.

Type: Ship. MMSI: 210228000.

Date/timePositionNaut miles runAvg speedWind from/ knotsBaromVisibWave heightAir tempDewpointWater temp
2014-Jul-24 17:32N 57°48' W 000°53'4 4.3
2014-Jul-24 16:33N 57°49' W 001°01'4 4.3
2014-Jul-24 15:33N 57°49' W 001°09'1 1.4
2014-Jul-24 14:33N 57°49' W 001°06'4 4.3
2014-Jul-24 13:33N 57°49' W 000°58'7 1.5
2014-Jul-24 09:03N 57°49' W 001°11'2 3.5
2014-Jul-24 08:33N 57°49' W 001°08'4 4.4
2014-Jul-24 07:33N 57°49' W 000°60'4 4.2
2014-Jul-24 06:33N 57°48' W 000°52'4 1.7
2014-Jul-24 04:30N 57°49' W 000°58'6 3.1
2014-Jul-24 02:33N 57°50' W 001°10'5 4.5
2014-Jul-24 01:21N 57°49' W 000°60'4 4.2
2014-Jul-24 00:28N 57°49' W 000°53'2 0.8
2014-Jul-23 22:33N 57°49' W 000°55'1 0.6
2014-Jul-23 20:21N 57°49' W 000°58'5 4.4
2014-Jul-23 19:13N 57°49' W 001°07'2 3.2
2014-Jul-23 18:33N 57°50' W 001°11'7 4.5
2014-Jul-23 17:04N 57°49' W 000°59'4 1.0
2014-Jul-23 12:33N 57°49' W 001°07'0 0.3
2014-Jul-23 11:26N 57°49' W 001°07'4 4.4
2014-Jul-23 10:32N 57°49' W 001°00'2 0.3
2014-Jul-23 04:33N 57°49' W 001°03'4 0.8
2014-Jul-22 23:25N 57°50' W 001°11'3 3.5
2014-Jul-22 22:33N 57°50' W 001°05'5 4.4
2014-Jul-22 21:30N 57°50' W 000°57'3 1.3
2014-Jul-22 19:33N 57°50' W 001°01'4 4.1
2014-Jul-22 18:31N 57°49' W 000°53'4 4.3
2014-Jul-22 17:33N 57°50' W 001°01'5 4.7
2014-Jul-22 16:33N 57°50' W 001°10'2 2.2
2014-Jul-22 15:33N 57°50' W 001°06'4 4.1
2014-Jul-22 14:29N 57°50' W 000°58'  
2014-Jul-19 10:13N 57°49' W 000°55'  
2014-Jul-16 10:33N 57°50' W 001°10'5 4.3
2014-Jul-16 09:25N 57°50' W 001°01'1 1.3
2014-Jul-16 08:27N 57°50' W 001°03'4 4.2
2014-Jul-16 07:32N 57°50' W 000°56'4 4.2
2014-Jul-16 06:33N 57°49' W 000°48'10 1.8
2014-Jul-16 01:16N 57°50' W 001°06'3 0.4
2014-Jul-15 18:12N 57°51' W 001°12'  
Track history (hours):
 
Tides and Currents Weather Stations Pressure Air Temp Water Temp Dewpoint Dewpoint Depression Visibility Wind Speed Wind Dir Waves Ship Positions

Munin Explorer

Last reported at 2014-Jul-24 17:32 UTC. Time now 2014-Jul-24 17:43 UTC.
Position N 57°48' W 000°53'.

Length 60 m; draft 7.2 m.

Type: Ship. MMSI: 210228000.

Date/timePositionNaut miles runAvg speedWind from/ knotsBaromVisibWave heightAir tempDewpointWater temp
2014-Jul-24 17:32N 57°48' W 000°53'4 4.3
2014-Jul-24 16:33N 57°49' W 001°01'4 4.3
2014-Jul-24 15:33N 57°49' W 001°09'1 1.4
2014-Jul-24 14:33N 57°49' W 001°06'4 4.3
2014-Jul-24 13:33N 57°49' W 000°58'7 1.5
2014-Jul-24 09:03N 57°49' W 001°11'2 3.5
2014-Jul-24 08:33N 57°49' W 001°08'4 4.4
2014-Jul-24 07:33N 57°49' W 000°60'4 4.2
2014-Jul-24 06:33N 57°48' W 000°52'4 1.7
2014-Jul-24 04:30N 57°49' W 000°58'6 3.1
2014-Jul-24 02:33N 57°50' W 001°10'5 4.5
2014-Jul-24 01:21N 57°49' W 000°60'4 4.2
2014-Jul-24 00:28N 57°49' W 000°53'2 0.8
2014-Jul-23 22:33N 57°49' W 000°55'1 0.6
2014-Jul-23 20:21N 57°49' W 000°58'5 4.4
2014-Jul-23 19:13N 57°49' W 001°07'2 3.2
2014-Jul-23 18:33N 57°50' W 001°11'7 4.5
2014-Jul-23 17:04N 57°49' W 000°59'4 1.0
2014-Jul-23 12:33N 57°49' W 001°07'0 0.3
2014-Jul-23 11:26N 57°49' W 001°07'4 4.4
2014-Jul-23 10:32N 57°49' W 001°00'2 0.3
2014-Jul-23 04:33N 57°49' W 001°03'4 0.8
2014-Jul-22 23:25N 57°50' W 001°11'3 3.5
2014-Jul-22 22:33N 57°50' W 001°05'5 4.4
2014-Jul-22 21:30N 57°50' W 000°57'3 1.3
2014-Jul-22 19:33N 57°50' W 001°01'4 4.1
2014-Jul-22 18:31N 57°49' W 000°53'4 4.3
2014-Jul-22 17:33N 57°50' W 001°01'5 4.7
2014-Jul-22 16:33N 57°50' W 001°10'2 2.2
2014-Jul-22 15:33N 57°50' W 001°06'4 4.1
2014-Jul-22 14:29N 57°50' W 000°58'  
2014-Jul-19 10:13N 57°49' W 000°55'  
2014-Jul-16 10:33N 57°50' W 001°10'5 4.3
2014-Jul-16 09:25N 57°50' W 001°01'1 1.3
2014-Jul-16 08:27N 57°50' W 001°03'4 4.2
2014-Jul-16 07:32N 57°50' W 000°56'4 4.2
2014-Jul-16 06:33N 57°49' W 000°48'10 1.8
2014-Jul-16 01:16N 57°50' W 001°06'3 0.4
2014-Jul-15 18:12N 57°51' W 001°12'  

Dump ship's entire track history